createdAt,value
2022-09-07T00:00:50.089Z,25.30
2022-09-07T00:03:18.496Z,25.20
2022-09-07T00:05:48.038Z,25.20
2022-09-07T00:08:18.746Z,25.20
2022-09-07T00:10:53.695Z,25.20
2022-09-07T00:13:22.025Z,25.20
2022-09-07T00:15:50.252Z,25.20
2022-09-07T00:18:18.698Z,25.20
2022-09-07T00:20:47.271Z,25.20
2022-09-07T00:23:15.452Z,25.20
2022-09-07T00:25:44.915Z,25.20
2022-09-07T00:28:12.971Z,25.20
2022-09-07T00:30:43.395Z,25.20
2022-09-07T00:33:11.467Z,25.20
2022-09-07T00:35:42.717Z,25.20
2022-09-07T00:38:11.087Z,25.20
2022-09-07T00:40:39.212Z,25.20
2022-09-07T00:43:09.346Z,25.10
2022-09-07T00:45:37.497Z,25.10
2022-09-07T00:48:09.792Z,25.00
2022-09-07T00:50:41.893Z,25.10
2022-09-07T00:53:24.005Z,25.10
2022-09-07T00:55:54.814Z,25.10
2022-09-07T00:58:24.997Z,25.10
2022-09-07T01:00:53.398Z,25.10
2022-09-07T01:03:28.629Z,25.10
2022-09-07T01:06:01.709Z,25.10
2022-09-07T01:08:30.435Z,25.10
2022-09-07T01:10:59.817Z,25.00
2022-09-07T01:13:29.369Z,25.10
2022-09-07T01:16:05.042Z,25.10
2022-09-07T01:18:40.561Z,25.00
2022-09-07T01:21:22.085Z,25.00
2022-09-07T01:24:25.300Z,25.00
2022-09-07T01:27:12.207Z,25.10
2022-09-07T01:29:53.395Z,25.00
2022-09-07T01:32:29.831Z,25.00
2022-09-07T01:34:58.404Z,25.00
2022-09-07T01:37:34.098Z,25.00
2022-09-07T01:40:08.733Z,25.00
2022-09-07T01:42:45.812Z,25.00
2022-09-07T01:45:18.376Z,25.00
2022-09-07T01:47:49.410Z,25.00
2022-09-07T01:50:22.439Z,25.00
2022-09-07T01:52:55.051Z,25.00
2022-09-07T01:55:28.020Z,25.00
2022-09-07T01:58:00.861Z,25.00
2022-09-07T02:00:32.290Z,25.00
2022-09-07T02:03:06.151Z,25.00
2022-09-07T02:05:40.955Z,25.00
2022-09-07T02:08:13.590Z,25.00
2022-09-07T02:10:45.224Z,25.00
2022-09-07T02:13:19.039Z,25.00
2022-09-07T02:15:53.234Z,25.00
2022-09-07T02:18:23.167Z,24.90
2022-09-07T02:20:54.381Z,24.90
2022-09-07T02:23:26.559Z,24.90
2022-09-07T02:25:58.190Z,24.90
2022-09-07T02:28:30.477Z,24.90
2022-09-07T02:31:00.220Z,24.90
2022-09-07T02:33:28.865Z,24.90
2022-09-07T02:35:56.942Z,24.90
2022-09-07T02:38:25.850Z,24.90
2022-09-07T02:40:55.048Z,24.90
2022-09-07T02:43:24.970Z,24.90
2022-09-07T02:46:10.348Z,24.90
2022-09-07T02:48:48.054Z,24.90
2022-09-07T02:51:22.941Z,24.90
2022-09-07T02:53:56.198Z,24.90
2022-09-07T02:56:38.939Z,24.90
2022-09-07T02:59:17.781Z,24.90
2022-09-07T03:01:57.037Z,24.90
2022-09-07T03:04:30.821Z,24.80
2022-09-07T03:07:05.655Z,24.80
2022-09-07T03:09:36.963Z,24.80
2022-09-07T03:12:07.424Z,24.80
2022-09-07T03:14:36.226Z,24.90
2022-09-07T03:17:05.766Z,24.80
2022-09-07T03:19:33.770Z,24.80
2022-09-07T03:22:01.786Z,24.80
2022-09-07T03:24:29.782Z,24.80
2022-09-07T03:26:57.860Z,24.80
2022-09-07T03:29:25.926Z,24.80
2022-09-07T03:31:53.949Z,24.80
2022-09-07T03:34:23.323Z,24.80
2022-09-07T03:36:51.331Z,24.80
2022-09-07T03:39:22.570Z,24.80
2022-09-07T03:41:50.814Z,24.80
2022-09-07T03:44:18.847Z,24.80
2022-09-07T03:46:46.915Z,24.80
2022-09-07T03:49:16.515Z,24.80
2022-09-07T03:51:46.022Z,24.80
2022-09-07T03:54:14.090Z,24.80
2022-09-07T03:56:42.118Z,24.80
2022-09-07T03:59:10.143Z,24.80
2022-09-07T04:01:38.322Z,24.70
2022-09-07T04:04:06.629Z,24.80
2022-09-07T04:06:34.750Z,24.80
2022-09-07T04:09:05.503Z,24.80
2022-09-07T04:11:33.927Z,24.70
2022-09-07T04:14:02.009Z,24.70
2022-09-07T04:16:30.289Z,24.80
2022-09-07T04:18:59.098Z,24.70
2022-09-07T04:21:29.296Z,24.70
2022-09-07T04:23:57.880Z,24.70
2022-09-07T04:26:29.027Z,24.70
2022-09-07T04:28:57.477Z,24.70
2022-09-07T04:31:26.424Z,24.70
2022-09-07T04:33:55.957Z,24.70
2022-09-07T04:36:25.782Z,24.70
2022-09-07T04:38:57.719Z,24.70
2022-09-07T04:41:27.890Z,24.70
2022-09-07T04:43:57.374Z,24.70
2022-09-07T04:46:27.159Z,24.70
2022-09-07T04:48:57.012Z,24.70
2022-09-07T04:51:27.777Z,24.70
2022-09-07T04:53:57.366Z,24.70
2022-09-07T04:56:27.371Z,24.70
2022-09-07T04:58:55.547Z,24.70
2022-09-07T05:01:25.432Z,24.70
2022-09-07T05:03:53.938Z,24.70
2022-09-07T05:06:23.473Z,24.70
2022-09-07T05:08:53.278Z,24.70
2022-09-07T05:11:27.717Z,24.70
2022-09-07T05:13:58.579Z,24.70
2022-09-07T05:16:27.814Z,24.70
2022-09-07T05:18:58.436Z,24.60
2022-09-07T05:21:28.522Z,24.60
2022-09-07T05:23:58.276Z,24.60
2022-09-07T05:26:28.381Z,24.60
2022-09-07T05:31:46.327Z,24.60
2022-09-07T05:34:31.045Z,24.60
2022-09-07T05:36:59.553Z,24.70
2022-09-07T05:39:28.142Z,24.60
2022-09-07T05:41:56.423Z,24.60
2022-09-07T05:47:14.556Z,24.70
2022-09-07T05:49:42.661Z,24.60
2022-09-07T05:52:10.768Z,24.60
2022-09-07T05:54:38.806Z,24.60
2022-09-07T05:57:07.267Z,24.60
2022-09-07T05:59:35.840Z,24.60
2022-09-07T06:02:04.587Z,24.60
2022-09-07T06:04:34.280Z,24.60
2022-09-07T06:07:21.036Z,24.60
2022-09-07T06:12:38.413Z,24.60
2022-09-07T06:15:07.417Z,24.60
2022-09-07T06:17:35.602Z,24.60
2022-09-07T06:20:05.703Z,24.60
2022-09-07T06:22:35.750Z,24.60
2022-09-07T06:25:04.000Z,24.60
2022-09-07T06:27:32.060Z,24.60
2022-09-07T06:30:00.180Z,24.70
2022-09-07T06:32:44.110Z,24.60
2022-09-07T06:35:14.847Z,24.70
2022-09-07T06:37:43.099Z,24.60
2022-09-07T06:40:12.161Z,24.70
2022-09-07T06:42:40.687Z,24.70
2022-09-07T06:45:10.968Z,24.70
2022-09-07T06:47:39.028Z,24.70
2022-09-07T06:50:07.853Z,24.70
2022-09-07T06:55:27.584Z,24.70
2022-09-07T06:57:55.763Z,24.70
2022-09-07T07:00:23.882Z,24.70
2022-09-07T07:02:52.027Z,24.70
2022-09-07T07:05:20.116Z,24.70
2022-09-07T07:07:49.523Z,24.70
2022-09-07T07:10:22.120Z,24.70
2022-09-07T07:12:53.124Z,24.70
2022-09-07T07:15:21.334Z,24.70
2022-09-07T07:17:58.127Z,24.70
2022-09-07T07:20:29.237Z,24.60
2022-09-07T07:22:58.639Z,24.60
2022-09-07T07:25:26.707Z,24.60
2022-09-07T07:27:54.897Z,24.60
2022-09-07T07:30:23.399Z,24.60
2022-09-07T07:32:51.569Z,24.60
2022-09-07T07:35:19.608Z,24.60
2022-09-07T07:37:48.094Z,24.60
2022-09-07T07:40:19.940Z,24.60
2022-09-07T07:42:51.508Z,24.50
2022-09-07T07:48:07.645Z,24.50
2022-09-07T07:50:35.640Z,24.50
2022-09-07T07:55:54.718Z,24.50
2022-09-07T07:58:22.951Z,24.50
2022-09-07T08:00:55.476Z,24.50
2022-09-07T08:03:25.074Z,24.50
2022-09-07T08:05:53.791Z,24.50
2022-09-07T08:08:22.680Z,24.30
2022-09-07T08:10:51.045Z,24.20
2022-09-07T08:13:21.740Z,24.00
2022-09-07T08:15:49.901Z,23.90
2022-09-07T08:18:18.861Z,23.80
2022-09-07T08:20:46.711Z,23.80
2022-09-07T08:23:15.243Z,23.70
2022-09-07T08:25:51.425Z,23.60
2022-09-07T08:28:21.215Z,23.60
2022-09-07T08:30:49.150Z,23.60
2022-09-07T08:33:17.152Z,23.60
2022-09-07T08:35:55.444Z,23.50
2022-09-07T08:38:23.385Z,23.60
2022-09-07T08:40:51.814Z,23.70
2022-09-07T08:43:31.293Z,23.80
2022-09-07T08:46:06.136Z,23.90
2022-09-07T08:48:35.979Z,24.00
2022-09-07T08:51:10.137Z,24.00
2022-09-07T08:53:45.158Z,24.10
2022-09-07T08:56:19.061Z,24.20
2022-09-07T08:58:51.153Z,24.40
2022-09-07T09:01:37.063Z,24.40
2022-09-07T09:04:16.707Z,24.40
2022-09-07T09:06:58.384Z,24.40
2022-09-07T09:09:38.671Z,24.40
2022-09-07T09:12:18.386Z,24.40
2022-09-07T09:14:59.845Z,24.40
2022-09-07T09:19:05.293Z,24.70
2022-09-07T09:21:34.851Z,24.60
2022-09-07T09:24:13.837Z,24.60
2022-09-07T09:26:44.606Z,24.70
2022-09-07T09:29:15.939Z,24.70
2022-09-07T09:31:43.941Z,24.70
2022-09-07T09:34:17.603Z,24.70
2022-09-07T09:36:47.685Z,24.70
2022-09-07T09:39:27.103Z,24.70
2022-09-07T09:41:56.962Z,24.70
2022-09-07T09:44:28.181Z,24.70
2022-09-07T09:49:46.490Z,24.70
2022-09-07T09:52:42.205Z,24.70
2022-09-07T10:04:04.663Z,24.70
2022-09-07T10:06:35.267Z,24.70
2022-09-07T10:09:03.959Z,24.70
2022-09-07T10:12:07.145Z,24.80
2022-09-07T10:14:37.904Z,24.80
2022-09-07T10:17:14.398Z,24.80
2022-09-07T10:19:44.216Z,24.80
2022-09-07T10:22:26.015Z,24.80
2022-09-07T10:24:53.922Z,24.80
2022-09-07T10:27:38.779Z,24.80
2022-09-07T10:30:14.587Z,24.70
2022-09-07T10:32:53.529Z,24.70
2022-09-07T10:35:27.629Z,24.70
2022-09-07T10:38:09.774Z,24.70
2022-09-07T10:40:43.746Z,24.60
2022-09-07T10:43:21.414Z,24.50
2022-09-07T10:46:12.978Z,24.50
2022-09-07T10:48:47.474Z,24.40
2022-09-07T10:51:18.991Z,24.40
2022-09-07T10:56:57.095Z,24.50
2022-09-07T11:02:40.919Z,24.60
2022-09-07T11:05:18.087Z,24.60
2022-09-07T11:08:02.259Z,24.60
2022-09-07T11:10:43.019Z,24.60
2022-09-07T11:13:15.497Z,24.60
2022-09-07T11:15:47.877Z,24.70
2022-09-07T11:18:20.791Z,24.70
2022-09-07T11:20:55.191Z,24.60
2022-09-07T11:23:27.728Z,24.60
2022-09-07T11:26:03.310Z,24.60
2022-09-07T11:28:39.682Z,24.60
2022-09-07T11:31:19.559Z,24.60
2022-09-07T11:36:51.807Z,24.70
2022-09-07T11:39:26.510Z,24.60
2022-09-07T11:42:42.811Z,24.70
2022-09-07T11:44:56.730Z,24.60
2022-09-07T11:47:30.974Z,24.60
2022-09-07T11:49:59.600Z,24.60
2022-09-07T11:52:35.418Z,24.60
2022-09-07T11:55:07.582Z,24.50
2022-09-07T11:57:55.658Z,24.50
2022-09-07T12:00:28.789Z,24.50
2022-09-07T12:03:23.216Z,24.50
2022-09-07T12:06:27.992Z,24.50
2022-09-07T12:09:07.627Z,24.60
2022-09-07T12:12:02.860Z,24.60
2022-09-07T12:14:42.640Z,24.60
2022-09-07T12:17:31.700Z,24.60
2022-09-07T12:20:16.738Z,24.70
2022-09-07T12:23:05.155Z,24.70
2022-09-07T12:25:34.596Z,24.70
2022-09-07T12:28:03.131Z,24.70
2022-09-07T12:31:04.478Z,24.70
2022-09-07T12:33:35.485Z,24.70
2022-09-07T12:36:24.238Z,24.70
2022-09-07T12:39:20.565Z,24.80
2022-09-07T12:42:31.859Z,24.80
2022-09-07T12:44:40.185Z,24.80
2022-09-07T12:47:27.819Z,24.80
2022-09-07T12:50:10.485Z,24.80
2022-09-07T12:52:48.335Z,24.80
2022-09-07T12:58:40.904Z,24.90
2022-09-07T13:01:27.904Z,24.90
2022-09-07T13:04:28.959Z,24.90
2022-09-07T13:07:18.228Z,24.90
2022-09-07T13:09:57.265Z,24.90
2022-09-07T13:15:43.117Z,24.90
2022-09-07T13:18:13.934Z,25.00
2022-09-07T13:20:41.956Z,25.00
2022-09-07T13:23:32.092Z,25.00
2022-09-07T13:26:01.823Z,25.00
2022-09-07T13:28:38.307Z,25.00
2022-09-07T13:31:21.880Z,25.00
2022-09-07T13:33:50.609Z,25.00
2022-09-07T13:36:34.651Z,25.00
2022-09-07T13:39:09.171Z,25.00
2022-09-07T13:41:42.220Z,25.00
2022-09-07T13:44:25.608Z,25.00
2022-09-07T13:47:08.715Z,25.00
2022-09-07T13:49:51.396Z,25.00
2022-09-07T13:52:29.007Z,25.10
2022-09-07T13:55:10.546Z,25.10
2022-09-07T13:57:48.323Z,25.10
2022-09-07T14:00:17.346Z,25.10
2022-09-07T14:02:54.468Z,25.10
2022-09-07T14:05:24.499Z,25.10
2022-09-07T14:07:52.544Z,25.10
2022-09-07T14:10:23.759Z,25.20
2022-09-07T14:12:53.916Z,25.20
2022-09-07T14:15:29.664Z,25.20
2022-09-07T14:18:06.267Z,25.30
2022-09-07T14:20:39.360Z,25.20
2022-09-07T14:23:13.183Z,25.20
2022-09-07T14:28:32.699Z,25.20
2022-09-07T14:31:01.053Z,25.20
2022-09-07T14:33:30.273Z,25.20
2022-09-07T14:35:59.264Z,25.20
2022-09-07T14:41:21.018Z,25.20
2022-09-07T14:43:53.918Z,25.20
2022-09-07T14:46:24.860Z,25.20
2022-09-07T14:48:55.416Z,25.20
2022-09-07T14:51:35.278Z,25.20
2022-09-07T14:54:06.552Z,25.20
2022-09-07T14:56:38.176Z,25.20
2022-09-07T14:59:27.300Z,25.20
2022-09-07T15:02:23.981Z,25.20
2022-09-07T15:05:26.436Z,25.20
2022-09-07T15:07:56.724Z,25.20
2022-09-07T15:10:37.751Z,25.10
2022-09-07T15:13:22.068Z,25.10
2022-09-07T15:15:58.322Z,25.20
2022-09-07T15:18:54.506Z,25.20
2022-09-07T15:21:25.407Z,25.10
2022-09-07T15:23:54.418Z,25.10
2022-09-07T15:29:13.024Z,25.20
2022-09-07T15:31:43.586Z,25.10
2022-09-07T15:34:16.025Z,25.20
2022-09-07T15:36:48.737Z,25.20
2022-09-07T15:39:18.457Z,25.20
2022-09-07T15:41:46.947Z,25.20
2022-09-07T15:44:15.781Z,25.20
2022-09-07T15:47:42.363Z,25.20
2022-09-07T15:49:31.915Z,25.20
2022-09-07T15:52:08.432Z,25.20
2022-09-07T15:54:39.728Z,25.20
2022-09-07T15:59:55.769Z,25.20
2022-09-07T16:05:12.128Z,25.20
2022-09-07T16:10:32.738Z,25.20
2022-09-07T16:13:02.459Z,25.20
2022-09-07T16:15:31.153Z,25.20
2022-09-07T16:17:59.209Z,25.20
2022-09-07T16:20:32.085Z,25.20
2022-09-07T16:23:17.390Z,25.20
2022-09-07T16:25:57.063Z,25.20
2022-09-07T16:28:25.281Z,25.20
2022-09-07T16:30:53.224Z,25.20
2022-09-07T16:33:21.356Z,25.20
2022-09-07T16:35:59.595Z,25.20
2022-09-07T16:38:45.652Z,25.10
2022-09-07T16:41:15.227Z,25.20
2022-09-07T16:43:43.322Z,25.20
2022-09-07T16:46:14.154Z,25.20
2022-09-07T16:48:43.784Z,25.10
2022-09-07T16:51:14.250Z,25.10
2022-09-07T16:53:43.914Z,25.10
2022-09-07T16:56:13.746Z,25.20
2022-09-07T16:58:43.421Z,25.10
2022-09-07T17:01:13.606Z,25.10
2022-09-07T17:03:42.297Z,25.10
2022-09-07T17:06:12.091Z,25.10
2022-09-07T17:08:41.115Z,25.10
2022-09-07T17:11:11.695Z,25.10
2022-09-07T17:13:41.321Z,25.10
2022-09-07T17:16:11.863Z,25.10
2022-09-07T17:21:31.281Z,25.10
2022-09-07T17:24:01.453Z,25.10
2022-09-07T17:26:31.083Z,25.10
2022-09-07T17:29:00.926Z,25.10
2022-09-07T17:34:20.161Z,25.10
2022-09-07T17:36:48.239Z,25.10
2022-09-07T17:39:18.094Z,25.00
2022-09-07T17:41:49.317Z,25.10
2022-09-07T17:44:17.415Z,25.10
2022-09-07T17:46:45.514Z,25.00
2022-09-07T17:49:16.134Z,25.10
2022-09-07T17:51:45.037Z,25.00
2022-09-07T17:54:15.628Z,25.00
2022-09-07T17:56:44.010Z,25.00
2022-09-07T18:02:01.318Z,25.00
2022-09-07T18:04:29.549Z,25.00
2022-09-07T18:06:57.552Z,25.00
2022-09-07T18:09:25.478Z,25.00
2022-09-07T18:11:53.363Z,25.00
2022-09-07T18:14:22.607Z,25.00
2022-09-07T18:16:51.620Z,25.00
2022-09-07T18:19:20.500Z,25.00
2022-09-07T18:21:49.061Z,25.00
2022-09-07T18:24:19.426Z,25.00
2022-09-07T18:26:50.624Z,25.00
2022-09-07T18:29:28.801Z,25.00
2022-09-07T18:31:59.718Z,25.00
2022-09-07T18:34:30.712Z,25.00
2022-09-07T18:36:59.120Z,25.00
2022-09-07T18:39:27.225Z,24.90
2022-09-07T18:41:55.412Z,25.00
2022-09-07T18:47:22.188Z,25.00
2022-09-07T18:49:55.417Z,25.00
2022-09-07T18:55:11.736Z,25.00
2022-09-07T18:57:39.726Z,25.00
2022-09-07T19:00:09.860Z,24.90
2022-09-07T19:02:39.395Z,24.90
2022-09-07T19:07:55.680Z,24.90
2022-09-07T19:10:23.579Z,24.90
2022-09-07T19:12:51.494Z,24.90
2022-09-07T19:15:20.413Z,24.90
2022-09-07T19:17:49.677Z,24.90
2022-09-07T19:20:17.752Z,24.90
2022-09-07T19:22:45.621Z,25.00
2022-09-07T19:25:13.509Z,25.00
2022-09-07T19:27:41.410Z,25.00
2022-09-07T19:30:10.481Z,25.00
2022-09-07T19:32:38.580Z,25.00
2022-09-07T19:35:08.696Z,25.00
2022-09-07T19:37:36.667Z,25.00
2022-09-07T19:40:05.962Z,25.00
2022-09-07T19:42:33.877Z,25.00
2022-09-07T19:45:01.741Z,25.10
2022-09-07T19:47:29.611Z,25.10
2022-09-07T19:49:57.543Z,25.10
2022-09-07T19:52:26.844Z,25.10
2022-09-07T19:54:54.781Z,25.10
2022-09-07T19:57:22.672Z,25.10
2022-09-07T19:59:52.991Z,25.10
2022-09-07T20:02:20.891Z,25.10
2022-09-07T20:04:48.825Z,25.10
2022-09-07T20:07:16.682Z,25.10
2022-09-07T20:09:50.338Z,25.10
2022-09-07T20:12:19.579Z,25.10
2022-09-07T20:14:47.441Z,25.10
2022-09-07T20:17:15.334Z,25.10
2022-09-07T20:19:43.222Z,25.10
2022-09-07T20:22:11.098Z,25.20
2022-09-07T20:24:39.980Z,25.20
2022-09-07T20:27:09.718Z,25.20
2022-09-07T20:29:38.421Z,25.20
2022-09-07T20:32:06.555Z,25.20
2022-09-07T20:34:34.546Z,25.20
2022-09-07T20:37:02.464Z,25.20
2022-09-07T20:39:30.630Z,25.20
2022-09-07T20:41:59.913Z,25.20
2022-09-07T20:44:29.110Z,25.20
2022-09-07T20:46:57.098Z,25.20
2022-09-07T20:49:25.087Z,25.20
2022-09-07T20:51:52.991Z,25.20
2022-09-07T20:54:20.862Z,25.20
2022-09-07T20:56:48.950Z,25.20
2022-09-07T20:59:16.851Z,25.20
2022-09-07T21:01:46.516Z,25.20
2022-09-07T21:04:14.438Z,25.20
2022-09-07T21:06:42.317Z,25.20
2022-09-07T21:09:10.547Z,25.20
2022-09-07T21:11:39.763Z,25.20
2022-09-07T21:14:09.503Z,25.20
2022-09-07T21:16:38.214Z,25.20
2022-09-07T21:19:10.885Z,25.20
2022-09-07T21:21:40.271Z,25.20
2022-09-07T21:24:15.398Z,25.20
2022-09-07T21:26:43.285Z,25.20
2022-09-07T21:29:17.126Z,25.20
2022-09-07T21:31:45.148Z,25.20
2022-09-07T21:34:15.016Z,25.20
2022-09-07T21:36:42.907Z,25.20
2022-09-07T21:39:14.331Z,25.20
2022-09-07T21:41:43.043Z,25.20
2022-09-07T21:44:13.317Z,25.20
2022-09-07T21:46:42.305Z,25.20
2022-09-07T21:49:10.412Z,25.20
2022-09-07T21:51:39.957Z,25.20
2022-09-07T21:54:08.026Z,25.20
2022-09-07T21:56:36.015Z,25.20
2022-09-07T21:59:04.091Z,25.20
2022-09-07T22:01:32.301Z,25.20
2022-09-07T22:04:02.146Z,25.20
2022-09-07T22:06:32.165Z,25.20
2022-09-07T22:09:02.067Z,25.20
2022-09-07T22:11:30.850Z,25.20
2022-09-07T22:14:01.731Z,25.20
2022-09-07T22:16:29.714Z,25.20
2022-09-07T22:18:57.602Z,25.20
2022-09-07T22:21:27.485Z,25.20
2022-09-07T22:23:57.778Z,25.20
2022-09-07T22:26:29.093Z,25.20
2022-09-07T22:28:58.549Z,25.20
2022-09-07T22:31:28.863Z,25.10
2022-09-07T22:33:57.681Z,25.20
2022-09-07T22:36:27.872Z,25.10
2022-09-07T22:38:57.219Z,25.10
2022-09-07T22:41:28.643Z,25.10
2022-09-07T22:43:56.991Z,25.10
2022-09-07T22:46:26.860Z,25.10
2022-09-07T22:48:55.484Z,25.10
2022-09-07T22:51:23.962Z,25.10
2022-09-07T22:53:51.934Z,25.10
2022-09-07T22:56:22.043Z,25.10
2022-09-07T22:58:53.502Z,25.10
2022-09-07T23:01:22.126Z,25.10
2022-09-07T23:03:50.649Z,25.10
2022-09-07T23:06:23.290Z,25.10
2022-09-07T23:08:52.433Z,25.10
2022-09-07T23:11:20.706Z,25.10
2022-09-07T23:13:53.698Z,25.10
2022-09-07T23:16:22.176Z,25.10
2022-09-07T23:18:50.382Z,25.10
2022-09-07T23:21:18.713Z,25.10
2022-09-07T23:23:51.425Z,25.10
2022-09-07T23:26:19.554Z,25.10
2022-09-07T23:28:51.286Z,25.10
2022-09-07T23:31:20.765Z,25.10
2022-09-07T23:33:48.949Z,25.10
2022-09-07T23:36:17.535Z,25.00
2022-09-07T23:38:45.512Z,25.00
2022-09-07T23:41:14.510Z,25.00
2022-09-07T23:43:42.672Z,25.00
2022-09-07T23:46:14.278Z,25.00
2022-09-07T23:48:44.080Z,25.00
2022-09-07T23:51:12.173Z,25.00
2022-09-07T23:53:40.182Z,25.00
2022-09-07T23:56:08.624Z,25.00
2022-09-07T23:58:36.559Z,24.90
